METAR Data
IDs: Format: Raw Decoded Include TAF

Data at: 1137 UTC 19 Jan 2019

KAEG 191135Z AUTO 32011KT 10SM CLR M02/M06 A3031 RMK AO2 T10231063

KAEG 191126Z 1912/2012 32006KT P6SM SKC
  FM192000 30010KT P6SM FEW250
  FM200400 32006KT P6SM BKN250